Time;durP1;ratioP1;P1;durP2;ratioP2;P2;SDS_P1;SDS_P2;PMS_P1;PMS_P2;Temp;Humidity;BMP_temperature;BMP_pressure;BME280_temperature;BME280_humidity;BME280_pressure;Samples;Min_cycle;Max_cycle;Signal;HPM_P1;HPM_P2
2021/12/18 00:02:25;;;;;;;82.78;27.08;;;;;;;-141.50;100.00;63355.56;4939908;29;20047;-85
2021/12/18 00:04:52;;;;;;;76.32;25.75;;;;;;;-141.50;100.00;63355.56;4939357;29;20051;-85
2021/12/18 00:07:19;;;;;;;80.18;27.00;;;;;;;-141.50;100.00;63355.56;4942197;29;20151;-84
2021/12/18 00:09:48;;;;;;;80.82;27.92;;;;;;;-141.50;100.00;63355.56;4943364;29;20051;-83
2021/12/18 00:12:14;;;;;;;68.68;24.23;;;;;;;-141.50;100.00;63355.56;4937586;29;20059;-84
2021/12/18 00:14:41;;;;;;;86.60;25.95;;;;;;;-141.50;100.00;63355.56;4938288;29;20394;-85
2021/12/18 00:17:07;;;;;;;68.95;23.83;;;;;;;-141.50;100.00;63355.56;4936790;29;20516;-83
2021/12/18 00:19:34;;;;;;;87.03;24.92;;;;;;;-141.50;100.00;63355.56;4938838;29;20066;-84
2021/12/18 00:22:01;;;;;;;66.32;22.73;;;;;;;-141.50;100.00;63355.56;4940752;29;20051;-85
2021/12/18 00:24:29;;;;;;;79.63;26.02;;;;;;;-141.50;100.00;63355.56;4943386;29;20052;-85
2021/12/18 00:26:56;;;;;;;75.35;24.40;;;;;;;-141.50;100.00;63355.56;4960646;28;20054;-83
2021/12/18 00:29:23;;;;;;;74.20;24.83;;;;;;;-141.50;100.00;63355.56;4956700;28;20052;-84
2021/12/18 00:31:51;;;;;;;74.82;24.02;;;;;;;-141.50;100.00;63355.56;4949865;28;20536;-83
2021/12/18 00:34:19;;;;;;;78.85;25.00;;;;;;;-141.50;100.00;63355.56;4955877;28;20035;-83
2021/12/18 00:36:45;;;;;;;85.82;25.15;;;;;;;-141.50;100.00;63355.56;4947690;29;20055;-85
2021/12/18 00:39:12;;;;;;;92.43;27.60;;;;;;;-141.50;100.00;63355.56;4941575;29;20050;-85
2021/12/18 00:42:07;;;;;;;89.93;28.85;;;;;;;-141.50;100.00;63355.56;4942248;29;20059;-84
2021/12/18 00:44:34;;;;;;;99.40;27.88;;;;;;;-141.50;100.00;63355.56;4941866;29;20449;-85
2021/12/18 00:47:01;;;;;;;92.68;27.38;;;;;;;-141.50;100.00;63355.56;4942228;29;20432;-85
2021/12/18 00:49:28;;;;;;;89.20;28.20;;;;;;;-141.50;100.00;63355.56;4950331;28;20048;-84
2021/12/18 00:51:54;;;;;;;95.28;26.90;;;;;;;-141.50;100.00;63355.56;4955731;29;20052;-83
2021/12/18 00:54:21;;;;;;;92.88;27.75;;;;;;;-141.50;100.00;63355.56;4942745;29;20527;-84
2021/12/18 00:56:48;;;;;;;87.40;27.63;;;;;;;-141.50;100.00;63355.56;4940113;29;20055;-85
2021/12/18 00:59:14;;;;;;;102.97;28.67;;;;;;;-141.50;100.00;63355.56;4941240;29;20412;-85
2021/12/18 01:01:41;;;;;;;85.53;27.83;;;;;;;-141.50;100.00;63355.56;4941293;29;20048;-84
2021/12/18 01:04:09;;;;;;;82.10;26.58;;;;;;;-141.50;100.00;63355.56;4940073;29;20059;-85
2021/12/18 01:06:36;;;;;;;89.32;26.60;;;;;;;-141.50;100.00;63355.56;4940027;29;20147;-86
2021/12/18 01:09:04;;;;;;;91.47;26.80;;;;;;;-141.50;100.00;63355.56;4941601;28;20075;-85
2021/12/18 01:11:33;;;;;;;89.15;28.45;;;;;;;-141.50;100.00;63355.56;4940550;29;20115;-85
2021/12/18 01:25:08;;;;;;;102.47;29.50;;;;;;;-141.50;100.00;63355.56;4939218;29;20079;-85
2021/12/18 01:27:35;;;;;;;90.80;27.15;;;;;;;-141.50;100.00;63355.56;4937451;29;20123;-85
2021/12/18 01:30:08;;;;;;;85.63;27.35;;;;;;;-141.50;100.00;63355.56;4938802;29;20048;-85
2021/12/18 01:32:36;;;;;;;84.60;28.35;;;;;;;-141.50;100.00;63355.56;4939243;28;20520;-85
2021/12/18 01:35:04;;;;;;;79.70;26.58;;;;;;;-141.50;100.00;63355.56;4938283;29;20082;-85
2021/12/18 01:37:30;;;;;;;90.63;28.83;;;;;;;-141.50;100.00;63355.56;4938898;29;20055;-85
2021/12/18 01:39:57;;;;;;;85.72;27.20;;;;;;;-141.50;100.00;63355.56;4939357;29;20058;-84
2021/12/18 01:53:29;;;;;;;72.17;23.33;;;;;;;-141.50;100.00;63355.56;4944421;29;20206;-86
2021/12/18 01:55:57;;;;;;;78.22;22.38;;;;;;;-141.50;100.00;63355.56;4943384;29;20056;-86
2021/12/18 01:58:25;;;;;;;73.35;23.08;;;;;;;-141.50;100.00;63355.56;4941969;29;20444;-85
2021/12/18 02:00:54;;;;;;;74.60;22.27;;;;;;;-141.50;100.00;63355.56;4942721;29;20047;-86
2021/12/18 02:03:22;;;;;;;74.28;22.77;;;;;;;-141.50;100.00;63355.56;4948824;28;20059;-84
2021/12/18 02:05:50;;;;;;;80.32;22.35;;;;;;;-141.50;100.00;63355.56;4941175;28;20099;-82
2021/12/18 02:08:19;;;;;;;79.47;22.80;;;;;;;-141.50;100.00;63355.56;4956513;29;20079;-83
2021/12/18 02:10:51;;;;;;;86.40;25.05;;;;;;;-141.50;100.00;63355.56;4956282;29;20044;-84
2021/12/18 02:13:37;;;;;;;80.85;23.20;;;;;;;-141.50;100.00;63355.56;4950844;29;20099;-85
2021/12/18 02:21:36;;;;;;;81.10;23.55;;;;;;;-141.50;100.00;63355.56;4945267;29;20083;-85
2021/12/18 02:24:03;;;;;;;73.63;22.52;;;;;;;-141.50;100.00;63355.56;4949767;29;20115;-85
2021/12/18 02:26:30;;;;;;;71.97;22.15;;;;;;;-141.50;100.00;63355.56;4940882;29;20055;-85
2021/12/18 02:28:59;;;;;;;79.65;22.58;;;;;;;-141.50;100.00;63355.56;4957994;28;20054;-86
2021/12/18 02:31:27;;;;;;;85.50;24.20;;;;;;;-141.50;100.00;63355.56;4939798;29;20119;-86
2021/12/18 02:33:54;;;;;;;79.45;23.52;;;;;;;-141.50;100.00;63355.56;4942416;29;20500;-86
2021/12/18 02:36:25;;;;;;;70.80;22.20;;;;;;;-141.50;100.00;63355.56;4941530;29;20072;-85
2021/12/18 02:41:30;;;;;;;72.40;21.92;;;;;;;-141.50;100.00;63355.56;4945607;28;20421;-85
2021/12/18 02:43:59;;;;;;;69.43;22.10;;;;;;;-141.50;100.00;63355.56;4947362;29;20059;-85
2021/12/18 02:46:26;;;;;;;71.72;23.17;;;;;;;-141.50;100.00;63355.56;4946017;29;20118;-84
2021/12/18 02:48:54;;;;;;;71.07;22.08;;;;;;;-141.50;100.00;63355.56;4943367;29;20122;-82
2021/12/18 02:51:21;;;;;;;73.45;23.40;;;;;;;-141.50;100.00;63355.56;4938660;29;20191;-84
2021/12/18 02:53:52;;;;;;;74.97;22.83;;;;;;;-141.50;100.00;63355.56;4940824;29;20048;-86
2021/12/18 02:56:23;;;;;;;72.05;24.05;;;;;;;-141.50;100.00;63355.56;4939548;29;20047;-86
2021/12/18 02:58:54;;;;;;;81.55;23.80;;;;;;;-141.50;100.00;63355.56;4948942;29;20142;-85
2021/12/18 03:01:24;;;;;;;85.18;23.58;;;;;;;-141.50;100.00;63355.56;4956211;28;20039;-83
2021/12/18 03:03:52;;;;;;;85.90;24.63;;;;;;;-141.50;100.00;63355.56;4939243;29;20058;-85
2021/12/18 03:25:08;;;;;;;80.18;24.73;;;;;;;-141.50;100.00;63355.56;4944826;29;20056;-84
2021/12/18 03:27:35;;;;;;;84.95;24.33;;;;;;;-141.50;100.00;63355.56;4955852;29;20512;-84
2021/12/18 03:30:03;;;;;;;82.90;24.70;;;;;;;-141.50;100.00;63355.56;4947927;29;20051;-85
2021/12/18 03:32:29;;;;;;;86.05;24.65;;;;;;;-141.50;100.00;63355.56;4938773;29;20051;-84
2021/12/18 03:34:56;;;;;;;83.72;25.35;;;;;;;-141.50;100.00;63355.56;4940066;29;20114;-84
2021/12/18 03:37:23;;;;;;;83.60;25.17;;;;;;;-141.50;100.00;63355.56;4940324;29;20051;-84
2021/12/18 03:39:50;;;;;;;79.85;24.98;;;;;;;-141.50;100.00;63355.56;4940868;29;20050;-85
2021/12/18 03:42:17;;;;;;;85.20;25.60;;;;;;;-141.50;100.00;63355.56;4940549;29;20048;-84
2021/12/18 03:44:44;;;;;;;74.85;24.30;;;;;;;-141.50;100.00;63355.56;4948694;28;20067;-85
2021/12/18 03:47:10;;;;;;;84.10;26.17;;;;;;;-141.50;100.00;63355.56;4939694;29;20421;-85
2021/12/18 03:49:37;;;;;;;76.72;23.40;;;;;;;-141.50;100.00;63355.56;4947042;29;20052;-84
2021/12/18 03:52:04;;;;;;;85.72;24.15;;;;;;;-141.50;100.00;63355.56;4952189;29;20062;-85
2021/12/18 03:54:30;;;;;;;84.28;23.30;;;;;;;-141.50;100.00;63355.56;4942629;29;20056;-86
2021/12/18 03:56:57;;;;;;;78.85;23.80;;;;;;;-141.50;100.00;63355.56;4942687;28;20044;-85
2021/12/18 03:59:24;;;;;;;91.82;26.15;;;;;;;-141.50;100.00;63355.56;4942099;29;20063;-84
2021/12/18 04:01:50;;;;;;;80.75;25.23;;;;;;;-141.50;100.00;63355.56;4940494;29;20051;-85
2021/12/18 04:04:17;;;;;;;85.13;24.58;;;;;;;-141.50;100.00;63355.56;4941567;29;20173;-86
2021/12/18 04:06:45;;;;;;;89.03;25.48;;;;;;;-141.50;100.00;63355.56;4940409;29;20065;-86
2021/12/18 04:09:12;;;;;;;88.40;26.00;;;;;;;-141.50;100.00;63355.56;4940552;29;20146;-85
2021/12/18 04:11:40;;;;;;;85.22;26.45;;;;;;;-141.50;100.00;63355.56;4943636;28;20051;-85
2021/12/18 04:14:08;;;;;;;75.30;23.08;;;;;;;-141.50;100.00;63355.56;4942047;29;20054;-84
2021/12/18 04:16:34;;;;;;;84.10;24.48;;;;;;;-141.50;100.00;63355.56;4943971;29;20047;-83
2021/12/18 04:19:01;;;;;;;82.03;25.42;;;;;;;-141.50;100.00;63355.56;4957212;28;20106;-84
2021/12/18 04:21:29;;;;;;;94.03;27.55;;;;;;;-141.50;100.00;63355.56;4941397;29;20047;-83
2021/12/18 04:23:56;;;;;;;84.53;25.60;;;;;;;-141.50;100.00;63355.56;4946340;28;20036;-82
2021/12/18 04:26:24;;;;;;;88.63;26.48;;;;;;;-141.50;100.00;63355.56;4950763;28;20084;-85
2021/12/18 04:28:50;;;;;;;82.63;25.27;;;;;;;-141.50;100.00;63355.56;4941646;29;20048;-83
2021/12/18 04:31:20;;;;;;;85.80;26.23;;;;;;;-141.50;100.00;63355.56;4949730;28;20039;-83
2021/12/18 04:33:46;;;;;;;80.85;24.58;;;;;;;-141.50;100.00;63355.56;4958542;28;20034;-82
2021/12/18 04:36:13;;;;;;;83.13;25.27;;;;;;;-141.50;100.00;63355.56;4958239;28;20105;-83
2021/12/18 04:38:40;;;;;;;90.57;27.30;;;;;;;-141.50;100.00;63355.56;4945459;29;20055;-86
2021/12/18 04:41:09;;;;;;;77.18;24.98;;;;;;;-141.50;100.00;63355.56;4947289;29;20046;-85
2021/12/18 04:43:36;;;;;;;71.95;23.58;;;;;;;-141.50;100.00;63355.56;4954870;29;20083;-83
2021/12/18 04:46:03;;;;;;;78.28;25.42;;;;;;;-141.50;100.00;63355.56;4954425;29;20066;-82
2021/12/18 04:48:30;;;;;;;76.75;24.50;;;;;;;-141.50;100.00;63355.56;4969918;28;20044;-82
2021/12/18 04:50:56;;;;;;;76.45;25.13;;;;;;;-141.50;100.00;63355.56;4937359;29;20102;-83
2021/12/18 04:53:23;;;;;;;81.47;23.80;;;;;;;-141.50;100.00;63355.56;4941150;29;20056;-85
2021/12/18 04:55:49;;;;;;;78.90;25.55;;;;;;;-141.50;100.00;63355.56;4942397;29;20588;-84
2021/12/18 04:58:16;;;;;;;76.28;24.15;;;;;;;-141.50;100.00;63355.56;4942192;29;20056;-85
2021/12/18 05:00:46;;;;;;;75.07;23.98;;;;;;;-141.50;100.00;63355.56;4940859;29;20416;-85
2021/12/18 05:03:16;;;;;;;78.93;24.48;;;;;;;-141.50;100.00;63355.56;4950018;29;20445;-85
2021/12/18 05:05:43;;;;;;;74.20;23.38;;;;;;;-141.50;100.00;63355.56;4940631;28;20052;-83
2021/12/18 05:08:10;;;;;;;74.88;23.13;;;;;;;-141.50;100.00;63355.56;4943734;28;20501;-83
2021/12/18 05:10:36;;;;;;;69.97;23.73;;;;;;;-141.50;100.00;63355.56;4936175;29;20047;-83
2021/12/18 05:13:03;;;;;;;65.70;22.40;;;;;;;-141.50;100.00;63355.56;4935218;29;20059;-85
2021/12/18 05:15:30;;;;;;;65.90;21.75;;;;;;;-141.50;100.00;63355.56;4936622;29;20082;-86
2021/12/18 05:17:56;;;;;;;65.50;22.70;;;;;;;-141.50;100.00;63355.56;4941639;29;20107;-84
2021/12/18 05:20:23;;;;;;;61.15;21.05;;;;;;;-141.50;100.00;63355.56;4940908;29;20075;-85
2021/12/18 05:22:50;;;;;;;62.30;21.83;;;;;;;-141.50;100.00;63355.56;4941461;29;20051;-86
2021/12/18 05:25:16;;;;;;;66.32;22.25;;;;;;;-141.50;100.00;63355.56;4942859;29;20122;-84
2021/12/18 05:27:43;;;;;;;64.53;20.85;;;;;;;-141.50;100.00;63355.56;4948387;28;20083;-85
2021/12/18 05:30:11;;;;;;;63.88;21.38;;;;;;;-141.50;100.00;63355.56;4946503;29;20048;-84
2021/12/18 05:32:38;;;;;;;61.88;22.33;;;;;;;-141.50;100.00;63355.56;4950742;29;20048;-85
2021/12/18 05:35:05;;;;;;;61.17;21.25;;;;;;;-141.50;100.00;63355.56;4945906;29;20083;-84
2021/12/18 05:37:45;;;;;;;64.43;21.40;;;;;;;-141.50;100.00;63355.56;4941905;29;20115;-86
2021/12/18 05:40:15;;;;;;;67.55;23.75;;;;;;;-141.50;100.00;63355.56;4946506;29;20031;-84
2021/12/18 05:42:46;;;;;;;74.05;22.85;;;;;;;-141.50;100.00;63355.56;4959587;28;20086;-83
2021/12/18 05:45:13;;;;;;;68.45;21.98;;;;;;;-141.50;100.00;63355.56;4941358;29;20058;-85
2021/12/18 05:47:40;;;;;;;70.70;22.10;;;;;;;-141.50;100.00;63355.56;4945799;28;20251;-83
2021/12/18 05:50:07;;;;;;;65.55;22.08;;;;;;;-141.50;100.00;63355.56;4943611;29;20051;-83
2021/12/18 05:52:34;;;;;;;69.07;22.40;;;;;;;-141.50;100.00;63355.56;4957164;28;20114;-84
2021/12/18 05:55:00;;;;;;;66.88;22.23;;;;;;;-141.50;100.00;63355.56;4941643;29;20329;-84
2021/12/18 05:57:27;;;;;;;71.88;23.15;;;;;;;-141.50;100.00;63355.56;4944055;29;20052;-86
2021/12/18 05:59:54;;;;;;;69.53;23.23;;;;;;;-141.50;100.00;63355.56;4944149;29;20052;-85
2021/12/18 06:02:20;;;;;;;62.33;22.13;;;;;;;-141.50;100.00;63355.56;4943108;29;20055;-85
2021/12/18 06:04:47;;;;;;;59.22;21.20;;;;;;;-141.50;100.00;63355.56;4943812;28;20071;-84
2021/12/18 06:07:28;;;;;;;56.28;19.75;;;;;;;-141.50;100.00;63355.56;4944981;29;20051;-85
2021/12/18 06:09:57;;;;;;;61.80;20.60;;;;;;;-141.50;100.00;63355.56;4942519;29;20138;-85
2021/12/18 06:12:24;;;;;;;66.45;21.67;;;;;;;-141.50;100.00;63355.56;4944048;29;20062;-85
2021/12/18 06:14:51;;;;;;;59.33;19.80;;;;;;;-141.50;100.00;63355.56;4944715;29;20111;-85
2021/12/18 06:17:17;;;;;;;59.05;20.20;;;;;;;-141.50;100.00;63355.56;4943070;29;20508;-84
2021/12/18 06:19:44;;;;;;;46.42;16.83;;;;;;;-141.50;100.00;63355.56;4938617;29;20083;-85
2021/12/18 06:22:11;;;;;;;47.97;17.92;;;;;;;-141.50;100.00;63355.56;4943808;29;20055;-85
2021/12/18 06:24:38;;;;;;;39.75;15.38;;;;;;;-141.50;100.00;63355.56;4944514;29;20043;-85
2021/12/18 06:27:04;;;;;;;34.15;12.95;;;;;;;-141.50;100.00;63355.56;4934337;29;20052;-85
2021/12/18 06:29:33;;;;;;;36.05;13.27;;;;;;;-141.50;100.00;63355.56;4943918;28;20036;-83
2021/12/18 06:32:00;;;;;;;39.17;16.00;;;;;;;-141.50;100.00;63355.56;4942637;29;20055;-85
2021/12/18 06:34:27;;;;;;;44.55;15.68;;;;;;;-141.50;100.00;63355.56;4933467;29;20052;-85
2021/12/18 06:36:54;;;;;;;45.95;17.23;;;;;;;-141.50;100.00;63355.56;4945139;29;20056;-84
2021/12/18 06:39:20;;;;;;;47.40;16.92;;;;;;;-141.50;100.00;63355.56;4928741;29;20079;-85
2021/12/18 06:41:48;;;;;;;51.63;19.15;;;;;;;-141.50;100.00;63355.56;4944993;29;20567;-85
2021/12/18 06:44:15;;;;;;;47.13;18.35;;;;;;;-141.50;100.00;63355.56;4957214;28;20040;-84
2021/12/18 06:46:42;;;;;;;50.17;18.13;;;;;;;-141.50;100.00;63355.56;4957128;28;20032;-82
2021/12/18 06:49:10;;;;;;;51.72;19.42;;;;;;;-141.50;100.00;63355.56;4949137;28;20609;-83
2021/12/18 06:51:38;;;;;;;47.20;18.35;;;;;;;-141.50;100.00;63355.56;4933264;29;20112;-84
2021/12/18 06:54:05;;;;;;;53.42;19.63;;;;;;;-141.50;100.00;63355.56;4934124;29;20095;-83
2021/12/18 06:56:31;;;;;;;55.70;19.67;;;;;;;-141.50;100.00;63355.56;4932616;29;20114;-85
2021/12/18 06:58:58;;;;;;;56.03;20.90;;;;;;;-141.50;100.00;63355.56;4921508;29;20089;-82
2021/12/18 07:01:24;;;;;;;51.33;19.02;;;;;;;-141.50;100.00;63355.56;4952243;28;20048;-83
2021/12/18 07:03:51;;;;;;;43.50;19.00;;;;;;;-141.50;100.00;63355.56;4939097;29;20052;-86
2021/12/18 07:06:18;;;;;;;44.85;18.85;;;;;;;-141.50;100.00;63355.56;4943649;28;20055;-85
2021/12/18 07:08:44;;;;;;;49.38;18.20;;;;;;;-141.50;100.00;63355.56;4940464;29;20086;-83
2021/12/18 07:11:11;;;;;;;44.60;17.77;;;;;;;-141.50;100.00;63355.56;4953861;29;20053;-82
2021/12/18 07:13:38;;;;;;;41.67;17.80;;;;;;;-141.50;100.00;63355.56;4952187;28;20067;-83
2021/12/18 07:16:05;;;;;;;43.88;18.02;;;;;;;-141.50;100.00;63355.56;4954716;29;20520;-82
2021/12/18 07:18:31;;;;;;;46.30;18.88;;;;;;;-141.50;100.00;63355.56;4955765;29;20107;-83
2021/12/18 07:20:58;;;;;;;47.22;18.00;;;;;;;-141.50;100.00;63355.56;4956752;28;20070;-83
2021/12/18 07:23:25;;;;;;;42.30;17.90;;;;;;;-141.50;100.00;63355.56;4943876;29;20528;-84
2021/12/18 07:25:51;;;;;;;39.92;17.25;;;;;;;-141.50;100.00;63355.56;4937123;29;20067;-83
2021/12/18 07:28:18;;;;;;;44.83;18.13;;;;;;;-141.50;100.00;63355.56;4938499;29;20083;-82
2021/12/18 07:30:47;;;;;;;45.55;19.25;;;;;;;-141.50;100.00;63355.56;4962282;28;20123;-82
2021/12/18 07:33:13;;;;;;;40.75;18.17;;;;;;;-141.50;100.00;63355.56;4935905;29;20056;-83
2021/12/18 07:35:41;;;;;;;48.20;18.83;;;;;;;-141.50;100.00;63355.56;4934450;29;20048;-83
2021/12/18 07:38:08;;;;;;;43.63;19.50;;;;;;;-141.50;100.00;63355.56;4933006;29;20051;-81
2021/12/18 07:40:35;;;;;;;42.03;18.38;;;;;;;-141.50;100.00;63355.56;4930979;29;20051;-83
2021/12/18 07:43:02;;;;;;;44.17;19.50;;;;;;;-141.50;100.00;63355.56;4936020;29;20052;-83
2021/12/18 07:45:33;;;;;;;46.83;18.38;;;;;;;-141.50;100.00;63355.56;4941344;29;20091;-84
2021/12/18 07:48:01;;;;;;;45.15;18.42;;;;;;;-141.50;100.00;63355.56;4961790;28;20098;-84
2021/12/18 07:50:30;;;;;;;45.28;18.88;;;;;;;-141.50;100.00;63355.56;4952010;28;20052;-83
2021/12/18 07:52:57;;;;;;;41.13;18.05;;;;;;;-141.50;100.00;63355.56;4947025;28;20047;-79
2021/12/18 07:55:24;;;;;;;34.45;16.20;;;;;;;-141.50;100.00;63355.56;4954162;28;20508;-83
2021/12/18 07:57:51;;;;;;;34.45;15.00;;;;;;;-141.50;100.00;63355.56;4947020;29;20326;-83
2021/12/18 08:00:19;;;;;;;31.35;15.40;;;;;;;-141.50;100.00;63355.56;4932782;29;20063;-83
2021/12/18 08:02:45;;;;;;;34.97;15.98;;;;;;;-141.50;100.00;63355.56;4931482;29;20118;-83
2021/12/18 08:05:14;;;;;;;39.55;16.75;;;;;;;-141.50;100.00;63355.56;4946340;28;20055;-82
2021/12/18 08:07:41;;;;;;;41.17;17.23;;;;;;;-141.50;100.00;63355.56;4947874;28;20055;-82
2021/12/18 08:10:08;;;;;;;40.60;16.17;;;;;;;-141.50;100.00;63355.56;4945412;28;20429;-83
2021/12/18 08:12:35;;;;;;;44.78;17.05;;;;;;;-141.50;100.00;63355.56;4929793;29;20083;-84
2021/12/18 08:15:03;;;;;;;40.63;15.40;;;;;;;-141.50;100.00;63355.56;4933594;29;20075;-84
2021/12/18 08:17:30;;;;;;;37.47;15.07;;;;;;;-141.50;100.00;63355.56;4930702;29;20100;-84
2021/12/18 08:19:56;;;;;;;36.80;15.15;;;;;;;-141.50;100.00;63355.56;4933532;28;20051;-83
2021/12/18 08:22:24;;;;;;;38.40;14.48;;;;;;;-141.50;100.00;63355.56;4936883;29;20051;-82
2021/12/18 08:24:51;;;;;;;40.40;14.25;;;;;;;-141.50;100.00;63355.56;4938846;29;20127;-81
2021/12/18 08:27:18;;;;;;;38.40;15.80;;;;;;;-141.50;100.00;63355.56;4929586;29;20557;-82
2021/12/18 08:29:44;;;;;;;36.03;14.35;;;;;;;-141.50;100.00;63355.56;4925429;29;20345;-84
2021/12/18 08:32:11;;;;;;;36.55;14.60;;;;;;;-141.50;100.00;63355.56;4953835;28;20047;-82
2021/12/18 08:34:37;;;;;;;33.38;14.23;;;;;;;-141.50;100.00;63355.56;4944282;29;20161;-79
2021/12/18 08:37:04;;;;;;;38.40;14.63;;;;;;;-141.50;100.00;63355.56;4934863;29;20681;-81
2021/12/18 08:39:31;;;;;;;38.53;13.98;;;;;;;-141.50;100.00;63355.56;4943189;29;20424;-78
2021/12/18 08:41:59;;;;;;;38.00;14.73;;;;;;;-141.50;100.00;63355.56;4946705;29;20072;-77
2021/12/18 08:44:25;;;;;;;33.45;13.43;;;;;;;-141.50;100.00;63355.56;4946262;29;20509;-82
2021/12/18 08:46:52;;;;;;;31.63;12.55;;;;;;;-141.50;100.00;63355.56;4940016;29;20119;-81
2021/12/18 08:49:19;;;;;;;33.17;13.55;;;;;;;-141.50;100.00;63355.56;4931504;29;20569;-84
2021/12/18 08:51:51;;;;;;;31.63;12.45;;;;;;;-141.50;100.00;63355.56;4932266;29;20143;-81
2021/12/18 08:54:17;;;;;;;33.75;12.07;;;;;;;-141.50;100.00;63355.56;4930281;29;20051;-83
2021/12/18 08:57:04;;;;;;;32.30;12.45;;;;;;;-141.50;100.00;63355.56;4942591;29;20044;-82
2021/12/18 08:59:30;;;;;;;24.63;11.30;;;;;;;-141.50;100.00;63355.56;4932129;29;20086;-82
2021/12/18 09:01:57;;;;;;;24.88;10.88;;;;;;;-141.50;100.00;63355.56;4933447;29;20552;-83
2021/12/18 09:04:23;;;;;;;29.60;10.05;;;;;;;-141.50;100.00;63355.56;4931908;29;20052;-82
2021/12/18 09:06:50;;;;;;;23.63;10.20;;;;;;;-141.50;100.00;63355.56;4947792;28;20051;-83
2021/12/18 09:09:16;;;;;;;24.75;10.50;;;;;;;-141.50;100.00;63355.56;4931700;29;20087;-83
2021/12/18 09:11:43;;;;;;;25.27;10.23;;;;;;;-141.50;100.00;63355.56;4931664;29;20520;-83
2021/12/18 09:14:10;;;;;;;25.67;11.43;;;;;;;-141.50;100.00;63355.56;4948833;28;20080;-83
2021/12/18 09:16:36;;;;;;;26.25;11.40;;;;;;;-141.50;100.00;63355.56;4933500;29;20055;-83
2021/12/18 09:19:03;;;;;;;22.48;10.10;;;;;;;-141.50;100.00;63355.56;4938187;28;20047;-80
2021/12/18 09:21:29;;;;;;;22.55;10.48;;;;;;;-141.50;100.00;63355.56;4935734;29;20500;-80
2021/12/18 09:23:56;;;;;;;21.95;10.35;;;;;;;-141.50;100.00;63355.56;4923365;29;20449;-82
2021/12/18 09:26:23;;;;;;;21.98;9.00;;;;;;;-141.50;100.00;63355.56;4926262;29;20066;-81
2021/12/18 09:28:50;;;;;;;21.30;9.02;;;;;;;-141.50;100.00;63355.56;4928955;29;20047;-82
2021/12/18 09:31:17;;;;;;;19.60;9.02;;;;;;;-141.50;100.00;63355.56;4929601;29;20079;-82
2021/12/18 09:33:46;;;;;;;20.90;9.30;;;;;;;-141.50;100.00;63355.56;4922066;29;20051;-81
2021/12/18 09:36:13;;;;;;;17.90;8.95;;;;;;;-141.50;100.00;63355.56;4928857;29;20052;-80
2021/12/18 09:38:39;;;;;;;18.25;8.38;;;;;;;-141.50;100.00;63355.56;4916821;29;20052;-82
2021/12/18 09:41:06;;;;;;;22.05;9.43;;;;;;;-141.50;100.00;63355.56;4933795;29;20051;-85
2021/12/18 09:43:34;;;;;;;17.23;9.32;;;;;;;-141.50;100.00;63355.56;4943987;28;20085;-80
2021/12/18 09:46:03;;;;;;;18.13;8.55;;;;;;;-141.50;100.00;63355.56;4936546;29;20290;-79
2021/12/18 09:48:31;;;;;;;19.10;9.15;;;;;;;-141.50;100.00;63355.56;4936578;29;20087;-82
2021/12/18 09:50:59;;;;;;;17.40;8.02;;;;;;;-141.50;100.00;63355.56;4946557;28;20605;-83
2021/12/18 09:53:25;;;;;;;16.67;7.60;;;;;;;-141.50;100.00;63355.56;4931158;29;20055;-82
2021/12/18 09:55:52;;;;;;;16.20;7.80;;;;;;;-141.50;100.00;63355.56;4930843;29;20098;-81
2021/12/18 09:58:19;;;;;;;20.45;7.78;;;;;;;-141.50;100.00;63355.56;4947521;28;20106;-81
2021/12/18 10:00:45;;;;;;;16.00;7.57;;;;;;;-141.50;100.00;63355.56;4931951;29;20086;-79
2021/12/18 10:03:12;;;;;;;15.48;7.35;;;;;;;-141.50;100.00;63355.56;4932676;29;20127;-81
2021/12/18 10:05:38;;;;;;;12.45;6.70;;;;;;;-141.50;100.00;63355.56;4950613;28;20123;-83
2021/12/18 10:08:16;;;;;;;13.52;6.35;;;;;;;-141.50;100.00;63355.56;4935287;29;20056;-81
2021/12/18 10:11:06;;;;;;;11.63;6.00;;;;;;;-141.50;100.00;63355.56;4944346;29;20054;-81
2021/12/18 10:13:53;;;;;;;13.98;6.22;;;;;;;-141.50;100.00;63355.56;4954277;28;20051;-81
2021/12/18 10:16:21;;;;;;;10.45;5.53;;;;;;;-141.50;100.00;63355.56;4956684;28;20094;-80
2021/12/18 10:18:49;;;;;;;9.88;5.50;;;;;;;-141.50;100.00;63355.56;4955900;28;20055;-82
2021/12/18 10:21:19;;;;;;;10.90;5.70;;;;;;;-141.50;100.00;63355.56;4955209;28;20130;-81
2021/12/18 10:23:48;;;;;;;11.43;5.50;;;;;;;-141.50;100.00;63355.56;4953993;28;20051;-82
2021/12/18 10:26:30;;;;;;;9.85;5.03;;;;;;;-141.50;100.00;63355.56;4955042;28;20055;-83
2021/12/18 10:28:57;;;;;;;11.77;5.95;;;;;;;-141.50;100.00;63355.56;4954261;28;20051;-83
2021/12/18 10:31:45;;;;;;;11.75;5.75;;;;;;;-141.50;100.00;63355.56;4955652;28;20086;-82
2021/12/18 10:34:26;;;;;;;12.10;6.40;;;;;;;-141.50;100.00;63355.56;4955513;28;20137;-82
2021/12/18 10:37:29;;;;;;;13.20;6.78;;;;;;;-141.50;100.00;63355.56;4945311;28;20052;-81
2021/12/18 10:40:11;;;;;;;11.20;5.90;;;;;;;-141.50;100.00;63355.56;4935474;29;20076;-80
2021/12/18 10:42:39;;;;;;;8.85;4.82;;;;;;;-141.50;100.00;63355.56;4944019;29;20111;-79
2021/12/18 10:45:24;;;;;;;11.18;5.88;;;;;;;-141.50;100.00;63355.56;4930414;29;20086;-84
2021/12/18 10:48:05;;;;;;;13.13;6.25;;;;;;;-141.50;100.00;63355.56;4947868;29;20457;-82
2021/12/18 10:50:53;;;;;;;10.73;5.95;;;;;;;-141.50;100.00;63355.56;4921862;29;20044;-82
2021/12/18 10:53:24;;;;;;;10.30;5.22;;;;;;;-141.50;100.00;63355.56;4927119;29;20437;-81
2021/12/18 10:55:51;;;;;;;9.13;4.60;;;;;;;-141.50;100.00;63355.56;4922279;29;20489;-81
2021/12/18 10:58:30;;;;;;;9.05;4.40;;;;;;;-141.50;100.00;63355.56;4918292;29;20067;-82
2021/12/18 11:01:16;;;;;;;7.20;4.22;;;;;;;-141.50;100.00;63355.56;4926989;29;20044;-83
2021/12/18 11:03:43;;;;;;;8.80;4.82;;;;;;;-141.50;100.00;63355.56;4931665;29;20055;-83
2021/12/18 11:06:31;;;;;;;6.68;3.72;;;;;;;-141.50;100.00;63355.56;4928331;29;20222;-83
2021/12/18 11:09:06;;;;;;;5.47;2.95;;;;;;;-141.50;100.00;63355.56;4936290;29;20060;-83
2021/12/18 11:14:07;;;;;;;8.50;3.83;;;;;;;-141.50;100.00;63355.56;4929367;29;20044;-83
2021/12/18 11:16:36;;;;;;;9.35;4.97;;;;;;;-141.50;100.00;63355.56;4932191;29;20512;-85
2021/12/18 11:19:05;;;;;;;8.10;4.65;;;;;;;-141.50;100.00;63355.56;4936541;29;20063;-84
2021/12/18 11:21:34;;;;;;;9.30;4.88;;;;;;;-141.50;100.00;63355.56;4935225;29;20052;-84
2021/12/18 11:24:07;;;;;;;11.65;5.47;;;;;;;-141.50;100.00;63355.56;4934036;29;20051;-82
2021/12/18 11:26:44;;;;;;;7.90;4.65;;;;;;;-141.50;100.00;63355.56;4938246;29;20551;-83
2021/12/18 11:29:28;;;;;;;12.18;4.95;;;;;;;-141.50;100.00;63355.56;4938159;29;20501;-84
2021/12/18 11:31:55;;;;;;;7.63;4.32;;;;;;;-141.50;100.00;63355.56;4928797;29;20041;-82
2021/12/18 11:34:22;;;;;;;8.07;4.43;;;;;;;-141.50;100.00;63355.56;4942456;28;20060;-84
2021/12/18 11:36:50;;;;;;;8.93;4.97;;;;;;;-141.50;100.00;63355.56;4926841;29;20675;-84
2021/12/18 11:39:20;;;;;;;10.20;4.93;;;;;;;-141.50;100.00;63355.56;4941654;29;20086;-83
2021/12/18 11:41:49;;;;;;;9.45;4.95;;;;;;;-141.50;100.00;63355.56;4919816;29;20048;-83
2021/12/18 11:44:27;;;;;;;9.50;5.25;;;;;;;-141.50;100.00;63355.56;4939685;29;20501;-82
2021/12/18 11:46:54;;;;;;;10.43;5.18;;;;;;;-141.50;100.00;63355.56;4918198;29;20052;-84
2021/12/18 11:49:25;;;;;;;11.90;6.32;;;;;;;-141.50;100.00;63355.56;4918407;29;20048;-83
2021/12/18 11:52:01;;;;;;;13.40;6.38;;;;;;;-141.50;100.00;63355.56;4919739;29;20078;-83
2021/12/18 11:54:41;;;;;;;13.25;5.65;;;;;;;-141.50;100.00;63355.56;4919765;29;20107;-84
2021/12/18 11:57:08;;;;;;;9.88;5.25;;;;;;;-141.50;100.00;63355.56;4924963;29;20400;-83